sensor_id;sensor_type;location;lat;lon;timestamp;pressure;altitude;pressure_sealevel;temperature;humidity
38716;BME280;24833;49.324;8.694;2023-07-13T00:02:05;99739.31;;;20.86;47.92
38716;BME280;24833;49.324;8.694;2023-07-13T00:04:32;99739.03;;;20.83;48.12
38716;BME280;24833;49.324;8.694;2023-07-13T00:07:00;99745.00;;;20.80;47.69
38716;BME280;24833;49.324;8.694;2023-07-13T00:09:27;99741.69;;;20.78;48.04
38716;BME280;24833;49.324;8.694;2023-07-13T00:11:56;99753.09;;;20.75;48.06
38716;BME280;24833;49.324;8.694;2023-07-13T00:14:26;99749.00;;;20.72;48.35
38716;BME280;24833;49.324;8.694;2023-07-13T00:16:54;99753.88;;;20.70;48.28
38716;BME280;24833;49.324;8.694;2023-07-13T00:19:21;99754.09;;;20.63;49.07
38716;BME280;24833;49.324;8.694;2023-07-13T00:21:49;99748.13;;;20.61;48.01
38716;BME280;24833;49.324;8.694;2023-07-13T00:24:18;99745.91;;;20.53;49.91
38716;BME280;24833;49.324;8.694;2023-07-13T00:26:50;99750.78;;;20.51;48.86
38716;BME280;24833;49.324;8.694;2023-07-13T00:29:18;99736.94;;;20.48;49.21
38716;BME280;24833;49.324;8.694;2023-07-13T00:31:45;99739.88;;;20.46;49.53
38716;BME280;24833;49.324;8.694;2023-07-13T00:34:13;99737.44;;;20.45;48.60
38716;BME280;24833;49.324;8.694;2023-07-13T00:36:40;99728.72;;;20.42;48.75
38716;BME280;24833;49.324;8.694;2023-07-13T00:39:07;99735.22;;;20.41;48.80
38716;BME280;24833;49.324;8.694;2023-07-13T00:41:34;99738.44;;;20.38;48.41
38716;BME280;24833;49.324;8.694;2023-07-13T00:44:04;99732.72;;;20.35;49.35
38716;BME280;24833;49.324;8.694;2023-07-13T00:46:33;99738.94;;;20.30;49.48
38716;BME280;24833;49.324;8.694;2023-07-13T00:49:06;99737.25;;;20.24;49.22
38716;BME280;24833;49.324;8.694;2023-07-13T00:52:03;99742.91;;;20.18;49.65
38716;BME280;24833;49.324;8.694;2023-07-13T00:54:36;99747.22;;;20.13;49.57
38716;BME280;24833;49.324;8.694;2023-07-13T00:57:10;99739.84;;;20.09;49.55
38716;BME280;24833;49.324;8.694;2023-07-13T00:59:43;99746.03;;;20.04;49.26
38716;BME280;24833;49.324;8.694;2023-07-13T01:02:11;99743.06;;;20.01;49.08
38716;BME280;24833;49.324;8.694;2023-07-13T01:04:39;99746.25;;;19.98;49.50
38716;BME280;24833;49.324;8.694;2023-07-13T01:07:06;99743.50;;;19.93;49.16
38716;BME280;24833;49.324;8.694;2023-07-13T01:09:34;99747.25;;;19.86;49.63
38716;BME280;24833;49.324;8.694;2023-07-13T01:12:01;99742.06;;;19.80;49.64
38716;BME280;24833;49.324;8.694;2023-07-13T01:14:29;99757.72;;;19.78;49.82
38716;BME280;24833;49.324;8.694;2023-07-13T01:16:57;99758.00;;;19.76;49.44
38716;BME280;24833;49.324;8.694;2023-07-13T01:19:36;99751.44;;;19.72;50.00
38716;BME280;24833;49.324;8.694;2023-07-13T01:22:10;99748.19;;;19.70;49.57
38716;BME280;24833;49.324;8.694;2023-07-13T01:24:40;99756.56;;;19.69;49.70
38716;BME280;24833;49.324;8.694;2023-07-13T01:27:10;99748.13;;;19.65;49.43
38716;BME280;24833;49.324;8.694;2023-07-13T01:29:41;99751.91;;;19.64;49.23
38716;BME280;24833;49.324;8.694;2023-07-13T01:32:20;99750.81;;;19.60;49.17
38716;BME280;24833;49.324;8.694;2023-07-13T01:34:51;99749.41;;;19.57;49.64
38716;BME280;24833;49.324;8.694;2023-07-13T01:37:26;99750.72;;;19.55;49.11
38716;BME280;24833;49.324;8.694;2023-07-13T01:39:53;99744.75;;;19.53;49.17
38716;BME280;24833;49.324;8.694;2023-07-13T01:42:20;99756.88;;;19.50;49.36
38716;BME280;24833;49.324;8.694;2023-07-13T01:44:48;99754.69;;;19.47;49.55
38716;BME280;24833;49.324;8.694;2023-07-13T01:47:15;99764.13;;;19.45;49.40
38716;BME280;24833;49.324;8.694;2023-07-13T01:49:42;99761.63;;;19.38;50.11
38716;BME280;24833;49.324;8.694;2023-07-13T01:52:09;99759.91;;;19.32;50.09
38716;BME280;24833;49.324;8.694;2023-07-13T01:54:36;99753.31;;;19.23;50.61
38716;BME280;24833;49.324;8.694;2023-07-13T01:57:03;99777.63;;;19.18;51.04
38716;BME280;24833;49.324;8.694;2023-07-13T01:59:30;99776.19;;;19.10;51.48
38716;BME280;24833;49.324;8.694;2023-07-13T02:01:59;99767.97;;;19.05;51.01
38716;BME280;24833;49.324;8.694;2023-07-13T02:04:27;99768.50;;;19.02;50.53
38716;BME280;24833;49.324;8.694;2023-07-13T02:06:54;99758.59;;;18.91;51.39
38716;BME280;24833;49.324;8.694;2023-07-13T02:09:22;99774.28;;;18.89;50.53
38716;BME280;24833;49.324;8.694;2023-07-13T02:11:49;99767.50;;;18.86;50.88
38716;BME280;24833;49.324;8.694;2023-07-13T02:14:16;99771.50;;;18.84;50.73
38716;BME280;24833;49.324;8.694;2023-07-13T02:16:44;99761.66;;;18.77;51.07
38716;BME280;24833;49.324;8.694;2023-07-13T02:19:11;99758.41;;;18.75;50.32
38716;BME280;24833;49.324;8.694;2023-07-13T02:21:39;99761.03;;;18.70;50.70
38716;BME280;24833;49.324;8.694;2023-07-13T02:24:06;99756.03;;;18.62;52.21
38716;BME280;24833;49.324;8.694;2023-07-13T02:26:34;99758.91;;;18.56;51.04
38716;BME280;24833;49.324;8.694;2023-07-13T02:29:01;99764.81;;;18.52;50.79
38716;BME280;24833;49.324;8.694;2023-07-13T02:31:28;99766.66;;;18.52;50.56
38716;BME280;24833;49.324;8.694;2023-07-13T02:33:56;99759.41;;;18.52;50.19
38716;BME280;24833;49.324;8.694;2023-07-13T02:36:23;99768.34;;;18.53;50.24
38716;BME280;24833;49.324;8.694;2023-07-13T02:38:50;99772.69;;;18.54;50.24
38716;BME280;24833;49.324;8.694;2023-07-13T02:41:17;99771.59;;;18.55;50.35
38716;BME280;24833;49.324;8.694;2023-07-13T02:43:45;99772.69;;;18.54;50.12
38716;BME280;24833;49.324;8.694;2023-07-13T02:46:13;99766.66;;;18.52;50.02
38716;BME280;24833;49.324;8.694;2023-07-13T02:48:41;99778.34;;;18.52;50.49
38716;BME280;24833;49.324;8.694;2023-07-13T02:51:08;99777.50;;;18.52;50.51
38716;BME280;24833;49.324;8.694;2023-07-13T02:53:35;99772.34;;;18.50;50.21
38716;BME280;24833;49.324;8.694;2023-07-13T02:56:04;99768.25;;;18.48;50.13
38716;BME280;24833;49.324;8.694;2023-07-13T02:58:31;99767.69;;;18.46;49.92
38716;BME280;24833;49.324;8.694;2023-07-13T03:00:59;99770.63;;;18.44;50.34
38716;BME280;24833;49.324;8.694;2023-07-13T03:03:26;99773.00;;;18.41;50.27
38716;BME280;24833;49.324;8.694;2023-07-13T03:06:00;99774.81;;;18.35;49.79
38716;BME280;24833;49.324;8.694;2023-07-13T03:08:34;99771.78;;;18.32;50.16
38716;BME280;24833;49.324;8.694;2023-07-13T03:11:08;99773.34;;;18.28;49.70
38716;BME280;24833;49.324;8.694;2023-07-13T03:13:41;99781.94;;;18.24;50.32
38716;BME280;24833;49.324;8.694;2023-07-13T03:16:11;99785.13;;;18.21;50.28
38716;BME280;24833;49.324;8.694;2023-07-13T03:18:40;99775.41;;;18.20;50.53
38716;BME280;24833;49.324;8.694;2023-07-13T03:21:10;99778.09;;;18.20;50.19
38716;BME280;24833;49.324;8.694;2023-07-13T03:23:38;99773.50;;;18.21;50.13
38716;BME280;24833;49.324;8.694;2023-07-13T03:26:13;99777.28;;;18.20;50.01
38716;BME280;24833;49.324;8.694;2023-07-13T03:28:41;99773.50;;;18.21;50.60
38716;BME280;24833;49.324;8.694;2023-07-13T03:31:17;99769.41;;;18.18;50.15
38716;BME280;24833;49.324;8.694;2023-07-13T03:33:45;99773.97;;;18.18;50.88
38716;BME280;24833;49.324;8.694;2023-07-13T03:36:17;99777.75;;;18.17;50.16
38716;BME280;24833;49.324;8.694;2023-07-13T03:38:51;99783.41;;;18.15;50.30
38716;BME280;24833;49.324;8.694;2023-07-13T03:41:23;99783.31;;;18.10;50.94
38716;BME280;24833;49.324;8.694;2023-07-13T03:43:53;99787.25;;;18.03;51.52
38716;BME280;24833;49.324;8.694;2023-07-13T03:46:22;99787.66;;;17.94;51.31
38716;BME280;24833;49.324;8.694;2023-07-13T03:48:50;99795.09;;;17.87;51.58
38716;BME280;24833;49.324;8.694;2023-07-13T03:51:17;99787.72;;;17.83;50.96
38716;BME280;24833;49.324;8.694;2023-07-13T03:53:46;99787.38;;;17.79;50.83
38716;BME280;24833;49.324;8.694;2023-07-13T03:56:17;99789.75;;;17.76;51.08
38716;BME280;24833;49.324;8.694;2023-07-13T03:58:47;99791.28;;;17.72;51.34
38716;BME280;24833;49.324;8.694;2023-07-13T04:01:19;99793.63;;;17.68;51.02
38716;BME280;24833;49.324;8.694;2023-07-13T04:03:47;99794.94;;;17.65;51.20
38716;BME280;24833;49.324;8.694;2023-07-13T04:06:25;99795.97;;;17.64;51.95
38716;BME280;24833;49.324;8.694;2023-07-13T04:08:56;99789.19;;;17.62;51.41
38716;BME280;24833;49.324;8.694;2023-07-13T04:11:27;99790.25;;;17.61;51.27
38716;BME280;24833;49.324;8.694;2023-07-13T04:13:55;99801.31;;;17.59;52.39
38716;BME280;24833;49.324;8.694;2023-07-13T04:16:24;99802.34;;;17.58;51.59
38716;BME280;24833;49.324;8.694;2023-07-13T04:18:51;99799.06;;;17.56;51.70
38716;BME280;24833;49.324;8.694;2023-07-13T04:21:22;99797.91;;;17.52;51.42
38716;BME280;24833;49.324;8.694;2023-07-13T04:23:49;99802.81;;;17.55;51.77
38716;BME280;24833;49.324;8.694;2023-07-13T04:26:16;99812.00;;;17.54;51.50
38716;BME280;24833;49.324;8.694;2023-07-13T04:28:43;99801.19;;;17.54;52.10
38716;BME280;24833;49.324;8.694;2023-07-13T04:31:10;99804.97;;;17.53;51.12
38716;BME280;24833;49.324;8.694;2023-07-13T04:33:37;99810.94;;;17.55;51.09
38716;BME280;24833;49.324;8.694;2023-07-13T04:36:05;99809.03;;;17.56;51.27
38716;BME280;24833;49.324;8.694;2023-07-13T04:38:33;99814.81;;;17.59;51.13
38716;BME280;24833;49.324;8.694;2023-07-13T04:41:05;99818.06;;;17.61;51.49
38716;BME280;24833;49.324;8.694;2023-07-13T04:43:33;99817.56;;;17.64;51.66
38716;BME280;24833;49.324;8.694;2023-07-13T04:46:12;99824.41;;;17.67;51.00
38716;BME280;24833;49.324;8.694;2023-07-13T04:48:40;99824.72;;;17.70;51.16
38716;BME280;24833;49.324;8.694;2023-07-13T04:51:07;99829.69;;;17.74;51.33
38716;BME280;24833;49.324;8.694;2023-07-13T04:53:35;99830.00;;;17.77;51.46
38716;BME280;24833;49.324;8.694;2023-07-13T04:56:03;99820.63;;;17.80;51.16
38716;BME280;24833;49.324;8.694;2023-07-13T04:58:31;99824.97;;;17.81;51.51
38716;BME280;24833;49.324;8.694;2023-07-13T05:01:04;99829.31;;;17.82;52.39
38716;BME280;24833;49.324;8.694;2023-07-13T05:03:32;99823.91;;;17.82;52.87
38716;BME280;24833;49.324;8.694;2023-07-13T05:06:04;99826.59;;;17.82;52.90
38716;BME280;24833;49.324;8.694;2023-07-13T05:08:32;99823.91;;;17.82;52.77
38716;BME280;24833;49.324;8.694;2023-07-13T05:11:04;99828.22;;;17.83;53.53
38716;BME280;24833;49.324;8.694;2023-07-13T05:13:31;99834.69;;;17.82;53.18
38716;BME280;24833;49.324;8.694;2023-07-13T05:16:04;99830.94;;;17.83;53.54
38716;BME280;24833;49.324;8.694;2023-07-13T05:18:33;99831.03;;;17.88;53.14
38716;BME280;24833;49.324;8.694;2023-07-13T05:21:04;99835.66;;;18.04;53.50
38716;BME280;24833;49.324;8.694;2023-07-13T05:23:34;99837.88;;;18.24;53.66
38716;BME280;24833;49.324;8.694;2023-07-13T05:26:02;99846.78;;;18.53;54.04
38716;BME280;24833;49.324;8.694;2023-07-13T05:28:33;99844.00;;;18.82;53.75
38716;BME280;24833;49.324;8.694;2023-07-13T05:31:00;99844.13;;;19.09;53.37
38716;BME280;24833;49.324;8.694;2023-07-13T05:33:27;99854.28;;;19.40;52.89
38716;BME280;24833;49.324;8.694;2023-07-13T05:35:55;99851.91;;;19.66;52.49
38716;BME280;24833;49.324;8.694;2023-07-13T05:38:22;99856.63;;;19.75;52.00
38716;BME280;24833;49.324;8.694;2023-07-13T05:40:50;99854.63;;;19.88;51.70
38716;BME280;24833;49.324;8.694;2023-07-13T05:43:17;99859.66;;;20.06;52.06
38716;BME280;24833;49.324;8.694;2023-07-13T05:45:44;99858.41;;;20.13;52.29
38716;BME280;24833;49.324;8.694;2023-07-13T05:48:12;99865.53;;;20.20;51.39
38716;BME280;24833;49.324;8.694;2023-07-13T05:50:39;99857.19;;;20.26;51.97
38716;BME280;24833;49.324;8.694;2023-07-13T05:53:06;99864.25;;;20.32;52.01
38716;BME280;24833;49.324;8.694;2023-07-13T05:55:33;99869.28;;;20.46;52.34
38716;BME280;24833;49.324;8.694;2023-07-13T05:58:01;99878.34;;;20.56;52.22
38716;BME280;24833;49.324;8.694;2023-07-13T06:00:28;99875.75;;;20.66;52.06
38716;BME280;24833;49.324;8.694;2023-07-13T06:02:56;99883.13;;;20.76;51.80
38716;BME280;24833;49.324;8.694;2023-07-13T06:05:24;99882.16;;;20.92;51.45
38716;BME280;24833;49.324;8.694;2023-07-13T06:07:51;99890.41;;;21.08;51.00
38716;BME280;24833;49.324;8.694;2023-07-13T06:10:18;99894.81;;;21.19;50.77
38716;BME280;24833;49.324;8.694;2023-07-13T06:12:45;99900.03;;;21.26;50.56
38716;BME280;24833;49.324;8.694;2023-07-13T06:15:12;99899.31;;;21.35;50.21
38716;BME280;24833;49.324;8.694;2023-07-13T06:17:39;99904.75;;;21.35;50.07
38716;BME280;24833;49.324;8.694;2023-07-13T06:20:07;99902.34;;;21.44;50.12
38716;BME280;24833;49.324;8.694;2023-07-13T06:22:34;99903.19;;;21.49;50.30
38716;BME280;24833;49.324;8.694;2023-07-13T06:25:01;99908.09;;;21.58;49.97
38716;BME280;24833;49.324;8.694;2023-07-13T06:27:28;99914.09;;;21.55;49.84
38716;BME280;24833;49.324;8.694;2023-07-13T06:29:57;99916.22;;;21.53;50.12
38716;BME280;24833;49.324;8.694;2023-07-13T06:32:24;99922.22;;;21.49;50.29
38716;BME280;24833;49.324;8.694;2023-07-13T06:34:51;99926.56;;;21.51;49.97
38716;BME280;24833;49.324;8.694;2023-07-13T06:37:21;99920.63;;;21.54;50.07
38716;BME280;24833;49.324;8.694;2023-07-13T06:39:48;99930.16;;;21.61;50.30
38716;BME280;24833;49.324;8.694;2023-07-13T06:42:16;99921.22;;;21.71;50.03
38716;BME280;24833;49.324;8.694;2023-07-13T06:44:44;99938.13;;;21.83;50.29
38716;BME280;24833;49.324;8.694;2023-07-13T06:47:11;99937.06;;;21.89;49.65
38716;BME280;24833;49.324;8.694;2023-07-13T06:49:38;99938.72;;;21.90;49.48
38716;BME280;24833;49.324;8.694;2023-07-13T06:52:06;99936.53;;;21.92;49.39
38716;BME280;24833;49.324;8.694;2023-07-13T06:54:33;99939.53;;;21.91;49.16
38716;BME280;24833;49.324;8.694;2023-07-13T06:57:00;99935.69;;;21.82;49.17
38716;BME280;24833;49.324;8.694;2023-07-13T06:59:27;99942.22;;;21.81;48.72
38716;BME280;24833;49.324;8.694;2023-07-13T07:01:54;99947.66;;;21.81;49.10
38716;BME280;24833;49.324;8.694;2023-07-13T07:04:21;99945.47;;;21.83;49.16
38716;BME280;24833;49.324;8.694;2023-07-13T07:06:48;99943.03;;;21.86;49.21
38716;BME280;24833;49.324;8.694;2023-07-13T07:09:15;99942.47;;;21.84;48.60
38716;BME280;24833;49.324;8.694;2023-07-13T07:11:43;99943.56;;;21.83;48.90
38716;BME280;24833;49.324;8.694;2023-07-13T07:14:28;99942.22;;;21.86;49.35
38716;BME280;24833;49.324;8.694;2023-07-13T07:16:55;99951.19;;;21.86;49.25
38716;BME280;24833;49.324;8.694;2023-07-13T07:19:22;99940.06;;;21.88;49.33
38716;BME280;24833;49.324;8.694;2023-07-13T07:21:50;99944.44;;;21.94;49.10
38716;BME280;24833;49.324;8.694;2023-07-13T07:24:17;99946.34;;;21.98;49.63
38716;BME280;24833;49.324;8.694;2023-07-13T07:26:44;99959.16;;;22.03;49.33
38716;BME280;24833;49.324;8.694;2023-07-13T07:29:14;99954.00;;;22.07;49.76
38716;BME280;24833;49.324;8.694;2023-07-13T07:31:43;99951.31;;;22.12;49.67
38716;BME280;24833;49.324;8.694;2023-07-13T07:34:13;99947.25;;;22.14;49.73
38716;BME280;24833;49.324;8.694;2023-07-13T07:36:40;99956.78;;;22.17;49.01
38716;BME280;24833;49.324;8.694;2023-07-13T07:39:11;99960.03;;;22.19;48.70
38716;BME280;24833;49.324;8.694;2023-07-13T07:41:38;99958.44;;;22.23;49.19
38716;BME280;24833;49.324;8.694;2023-07-13T07:44:08;99953.25;;;22.26;49.17
38716;BME280;24833;49.324;8.694;2023-07-13T07:46:36;99962.81;;;22.29;48.83
38716;BME280;24833;49.324;8.694;2023-07-13T07:49:04;99951.38;;;22.32;48.83
38716;BME280;24833;49.324;8.694;2023-07-13T07:51:31;99961.75;;;22.35;48.61
38716;BME280;24833;49.324;8.694;2023-07-13T07:53:58;99963.91;;;22.38;47.34
38716;BME280;24833;49.324;8.694;2023-07-13T07:56:25;99957.38;;;22.34;47.71
38716;BME280;24833;49.324;8.694;2023-07-13T07:58:55;99965.56;;;22.34;48.11
38716;BME280;24833;49.324;8.694;2023-07-13T08:01:25;99967.22;;;22.40;48.44
38716;BME280;24833;49.324;8.694;2023-07-13T08:03:55;99957.13;;;22.46;48.13
38716;BME280;24833;49.324;8.694;2023-07-13T08:06:25;99951.97;;;22.49;47.66
38716;BME280;24833;49.324;8.694;2023-07-13T08:08:56;99959.59;;;22.52;48.10
38716;BME280;24833;49.324;8.694;2023-07-13T08:11:23;99954.16;;;22.57;48.62
38716;BME280;24833;49.324;8.694;2023-07-13T08:13:53;99947.91;;;22.67;48.48
38716;BME280;24833;49.324;8.694;2023-07-13T08:16:23;99954.16;;;22.78;48.63
38716;BME280;24833;49.324;8.694;2023-07-13T08:18:50;99959.38;;;22.90;48.05
38716;BME280;24833;49.324;8.694;2023-07-13T08:21:17;99958.56;;;22.99;48.46
38716;BME280;24833;49.324;8.694;2023-07-13T08:23:46;99964.03;;;23.09;48.02
38716;BME280;24833;49.324;8.694;2023-07-13T08:26:14;99954.19;;;23.14;47.74
38716;BME280;24833;49.324;8.694;2023-07-13T08:28:41;99955.28;;;23.13;46.86
38716;BME280;24833;49.324;8.694;2023-07-13T08:31:09;99956.38;;;23.17;46.35
38716;BME280;24833;49.324;8.694;2023-07-13T08:33:37;99963.47;;;23.18;47.33
38716;BME280;24833;49.324;8.694;2023-07-13T08:36:05;99949.56;;;23.19;45.96
38716;BME280;24833;49.324;8.694;2023-07-13T08:38:33;99956.91;;;23.24;46.25
38716;BME280;24833;49.324;8.694;2023-07-13T08:41:11;99949.28;;;23.26;46.79
38716;BME280;24833;49.324;8.694;2023-07-13T08:43:40;99949.81;;;23.33;47.28
38716;BME280;24833;49.324;8.694;2023-07-13T08:46:35;99953.88;;;23.46;47.21
38716;BME280;24833;49.324;8.694;2023-07-13T08:49:12;99959.84;;;23.58;46.96
38716;BME280;24833;49.324;8.694;2023-07-13T08:52:01;99963.13;;;23.65;46.25
38716;BME280;24833;49.324;8.694;2023-07-13T08:54:37;99950.88;;;23.68;45.92
38716;BME280;24833;49.324;8.694;2023-07-13T08:57:14;99958.47;;;23.71;45.71
38716;BME280;24833;49.324;8.694;2023-07-13T08:59:44;99957.94;;;23.69;45.01
38716;BME280;24833;49.324;8.694;2023-07-13T09:05:38;99954.38;;;23.73;44.74
38716;BME280;24833;49.324;8.694;2023-07-13T09:14:03;99953.56;;;23.73;44.52
38716;BME280;24833;49.324;8.694;2023-07-13T09:16:33;99946.97;;;23.84;44.58
38716;BME280;24833;49.324;8.694;2023-07-13T09:19:05;99951.31;;;23.95;44.37
38716;BME280;24833;49.324;8.694;2023-07-13T09:21:38;99954.00;;;24.00;44.17
38716;BME280;24833;49.324;8.694;2023-07-13T09:24:38;99950.44;;;24.05;43.96
38716;BME280;24833;49.324;8.694;2023-07-13T09:27:26;99953.13;;;24.10;44.43
38716;BME280;24833;49.324;8.694;2023-07-13T09:32:50;99951.34;;;24.39;44.12
38716;BME280;24833;49.324;8.694;2023-07-13T09:35:24;99956.50;;;24.46;44.05
38716;BME280;24833;49.324;8.694;2023-07-13T09:37:56;99963.06;;;24.45;42.74
38716;BME280;24833;49.324;8.694;2023-07-13T09:41:10;99962.28;;;24.39;42.47
38716;BME280;24833;49.324;8.694;2023-07-13T09:44:12;99957.69;;;24.30;42.11
38716;BME280;24833;49.324;8.694;2023-07-13T09:46:46;99958.22;;;24.27;41.19
38716;BME280;24833;49.324;8.694;2023-07-13T09:49:14;99962.34;;;24.19;41.66
38716;BME280;24833;49.324;8.694;2023-07-13T09:51:42;99967.59;;;24.15;42.21
38716;BME280;24833;49.324;8.694;2023-07-13T09:54:24;99947.91;;;24.18;42.79
38716;BME280;24833;49.324;8.694;2023-07-13T09:56:56;99957.69;;;24.30;42.25
38716;BME280;24833;49.324;8.694;2023-07-13T09:59:31;99958.75;;;24.34;42.03
38716;BME280;24833;49.324;8.694;2023-07-13T10:01:58;99949.44;;;24.40;42.54
38716;BME280;24833;49.324;8.694;2023-07-13T10:04:33;99959.78;;;24.48;42.25
38716;BME280;24833;49.324;8.694;2023-07-13T10:07:06;99959.41;;;24.60;42.10
38716;BME280;24833;49.324;8.694;2023-07-13T10:09:56;99950.38;;;24.64;42.28
38716;BME280;24833;49.324;8.694;2023-07-13T10:12:24;99949.75;;;24.72;42.93
38716;BME280;24833;49.324;8.694;2023-07-13T10:14:58;99945.34;;;24.82;42.53
38716;BME280;24833;49.324;8.694;2023-07-13T10:17:47;99959.16;;;24.95;40.74
38716;BME280;24833;49.324;8.694;2023-07-13T10:20:15;99951.22;;;24.94;40.92
38716;BME280;24833;49.324;8.694;2023-07-13T10:25:24;99954.25;;;24.92;40.74
38716;BME280;24833;49.324;8.694;2023-07-13T10:27:58;99946.59;;;24.94;40.77
38716;BME280;24833;49.324;8.694;2023-07-13T10:30:31;99952.63;;;24.91;40.39
38716;BME280;24833;49.324;8.694;2023-07-13T10:33:03;99944.19;;;24.88;41.21
38716;BME280;24833;49.324;8.694;2023-07-13T10:35:35;99944.69;;;24.95;41.82
38716;BME280;24833;49.324;8.694;2023-07-13T10:38:11;99941.31;;;25.08;42.06
38716;BME280;24833;49.324;8.694;2023-07-13T10:40:49;99939.47;;;25.27;41.82
38716;BME280;24833;49.324;8.694;2023-07-13T10:43:28;99930.53;;;25.46;40.66
38716;BME280;24833;49.324;8.694;2023-07-13T10:45:59;99930.44;;;25.56;40.06
38716;BME280;24833;49.324;8.694;2023-07-13T10:48:27;99930.91;;;25.63;39.65
38716;BME280;24833;49.324;8.694;2023-07-13T10:50:57;99934.16;;;25.65;40.17
38716;BME280;24833;49.324;8.694;2023-07-13T10:53:36;99944.53;;;25.68;37.87
38716;BME280;24833;49.324;8.694;2023-07-13T10:56:29;99939.91;;;25.64;39.26
38716;BME280;24833;49.324;8.694;2023-07-13T10:59:24;99938.56;;;25.61;37.53
38716;BME280;24833;49.324;8.694;2023-07-13T11:01:56;99934.75;;;25.62;38.30
38716;BME280;24833;49.324;8.694;2023-07-13T11:04:26;99923.72;;;25.67;37.01
38716;BME280;24833;49.324;8.694;2023-07-13T11:06:59;99919.91;;;25.68;37.28
38716;BME280;24833;49.324;8.694;2023-07-13T11:09:39;99929.50;;;25.66;38.13
38716;BME280;24833;49.324;8.694;2023-07-13T11:12:26;99931.84;;;25.77;38.55
38716;BME280;24833;49.324;8.694;2023-07-13T11:17:37;99927.63;;;26.09;36.64
38716;BME280;24833;49.324;8.694;2023-07-13T11:22:46;99916.94;;;26.26;38.26
38716;BME280;24833;49.324;8.694;2023-07-13T11:31:02;99911.75;;;26.49;37.25
38716;BME280;24833;49.324;8.694;2023-07-13T11:33:52;99913.06;;;26.51;34.90
38716;BME280;24833;49.324;8.694;2023-07-13T11:36:23;99921.72;;;26.40;35.70
38716;BME280;24833;49.324;8.694;2023-07-13T11:39:04;99916.06;;;26.31;35.29
38716;BME280;24833;49.324;8.694;2023-07-13T11:41:45;99925.16;;;26.26;35.67
38716;BME280;24833;49.324;8.694;2023-07-13T11:44:19;99921.47;;;26.17;36.49
38716;BME280;24833;49.324;8.694;2023-07-13T11:46:59;99922.97;;;26.10;35.90
38716;BME280;24833;49.324;8.694;2023-07-13T11:49:32;99923.88;;;26.00;36.09
38716;BME280;24833;49.324;8.694;2023-07-13T11:52:12;99921.25;;;25.95;36.33
38716;BME280;24833;49.324;8.694;2023-07-13T11:55:03;99923.44;;;25.93;36.67
38716;BME280;24833;49.324;8.694;2023-07-13T11:57:45;99928.63;;;25.94;37.31
38716;BME280;24833;49.324;8.694;2023-07-13T12:00:18;99927.28;;;25.92;36.69
38716;BME280;24833;49.324;8.694;2023-07-13T12:02:51;99919.94;;;25.87;36.66
38716;BME280;24833;49.324;8.694;2023-07-13T12:05:20;99921.06;;;25.86;36.36
38716;BME280;24833;49.324;8.694;2023-07-13T12:07:49;99921.81;;;25.92;37.49
38716;BME280;24833;49.324;8.694;2023-07-13T12:10:30;99918.06;;;26.06;37.45
38716;BME280;24833;49.324;8.694;2023-07-13T12:13:05;99917.03;;;26.21;37.65
38716;BME280;24833;49.324;8.694;2023-07-13T12:18:02;99925.88;;;26.56;35.72
38716;BME280;24833;49.324;8.694;2023-07-13T12:20:39;99920.81;;;26.63;35.43
38716;BME280;24833;49.324;8.694;2023-07-13T12:23:32;99910.50;;;26.74;36.13
38716;BME280;24833;49.324;8.694;2023-07-13T12:26:04;99917.66;;;26.88;36.25
38716;BME280;24833;49.324;8.694;2023-07-13T12:28:39;99920.59;;;26.92;35.17
38716;BME280;24833;49.324;8.694;2023-07-13T12:31:36;99904.47;;;26.91;34.88
38716;BME280;24833;49.324;8.694;2023-07-13T12:34:15;99905.25;;;26.77;34.93
38716;BME280;24833;49.324;8.694;2023-07-13T12:36:48;99911.91;;;26.71;34.88
38716;BME280;24833;49.324;8.694;2023-07-13T12:39:37;99924.69;;;26.62;34.20
38716;BME280;24833;49.324;8.694;2023-07-13T12:42:21;99933.47;;;26.59;35.28
38716;BME280;24833;49.324;8.694;2023-07-13T12:45:18;99931.25;;;26.61;34.59
38716;BME280;24833;49.324;8.694;2023-07-13T12:47:53;99923.63;;;26.58;34.73
38716;BME280;24833;49.324;8.694;2023-07-13T12:50:23;99930.31;;;26.52;33.30
38716;BME280;24833;49.324;8.694;2023-07-13T12:53:01;99916.25;;;26.40;33.33
38716;BME280;24833;49.324;8.694;2023-07-13T12:55:30;99914.59;;;26.39;34.02
38716;BME280;24833;49.324;8.694;2023-07-13T12:58:03;99930.16;;;26.43;34.75
38716;BME280;24833;49.324;8.694;2023-07-13T13:00:35;99927.13;;;26.45;34.29
38716;BME280;24833;49.324;8.694;2023-07-13T13:03:16;99913.13;;;26.46;34.49
38716;BME280;24833;49.324;8.694;2023-07-13T13:06:05;99933.34;;;26.50;34.66
38716;BME280;24833;49.324;8.694;2023-07-13T13:08:36;99921.59;;;26.50;34.61
38716;BME280;24833;49.324;8.694;2023-07-13T13:11:04;99919.97;;;26.49;34.47
38716;BME280;24833;49.324;8.694;2023-07-13T13:13:31;99914.47;;;26.49;34.41
38716;BME280;24833;49.324;8.694;2023-07-13T13:16:18;99940.75;;;26.50;34.04
38716;BME280;24833;49.324;8.694;2023-07-13T13:18:47;99933.34;;;26.50;34.24
38716;BME280;24833;49.324;8.694;2023-07-13T13:21:16;99934.47;;;26.49;34.22
38716;BME280;24833;49.324;8.694;2023-07-13T13:23:43;99935.59;;;26.48;34.22
38716;BME280;24833;49.324;8.694;2023-07-13T13:26:14;99945.44;;;26.49;34.21
38716;BME280;24833;49.324;8.694;2023-07-13T13:28:45;99941.88;;;26.49;34.66
38716;BME280;24833;49.324;8.694;2023-07-13T13:31:14;99934.16;;;26.51;34.22
38716;BME280;24833;49.324;8.694;2023-07-13T13:33:44;99939.66;;;26.51;33.50
38716;BME280;24833;49.324;8.694;2023-07-13T13:36:19;99934.97;;;26.51;34.26
38716;BME280;24833;49.324;8.694;2023-07-13T13:38:49;99934.59;;;26.58;35.00
38716;BME280;24833;49.324;8.694;2023-07-13T13:41:16;99934.41;;;26.68;34.56
38716;BME280;24833;49.324;8.694;2023-07-13T13:43:44;99938.94;;;26.78;34.36
38716;BME280;24833;49.324;8.694;2023-07-13T13:46:21;99947.91;;;26.83;33.76
38716;BME280;24833;49.324;8.694;2023-07-13T13:48:49;99925.16;;;26.83;33.77
38716;BME280;24833;49.324;8.694;2023-07-13T13:51:21;99918.25;;;26.85;34.30